createdAt,value
2019-05-20T00:01:27.313Z,31.40
2019-05-20T00:03:55.199Z,31.43
2019-05-20T00:06:22.753Z,30.70
2019-05-20T00:08:50.313Z,29.70
2019-05-20T00:11:17.854Z,29.40
2019-05-20T00:13:45.495Z,27.67
2019-05-20T00:16:13.371Z,26.23
2019-05-20T00:18:40.845Z,25.90
2019-05-20T00:21:08.585Z,25.43
2019-05-20T00:23:36.066Z,25.50
2019-05-20T00:26:04.289Z,24.80
2019-05-20T00:28:32.159Z,22.93
2019-05-20T00:30:59.688Z,24.20
2019-05-20T00:33:27.128Z,23.63
2019-05-20T00:35:54.673Z,22.53
2019-05-20T00:38:22.195Z,23.33
2019-05-20T00:40:49.709Z,23.63
2019-05-20T00:43:17.311Z,20.97
2019-05-20T00:45:44.833Z,20.57
2019-05-20T00:48:12.395Z,21.23
2019-05-20T00:50:39.923Z,19.53
2019-05-20T00:53:07.598Z,21.07
2019-05-20T00:55:37.947Z,21.90
2019-05-20T00:58:05.553Z,21.93
2019-05-20T01:00:33.333Z,20.57
2019-05-20T01:03:00.870Z,20.13
2019-05-20T01:05:28.381Z,20.57
2019-05-20T01:07:56.153Z,20.30
2019-05-20T01:10:23.676Z,19.40
2019-05-20T01:12:51.207Z,18.73
2019-05-20T01:15:19.719Z,19.37
2019-05-20T01:17:47.221Z,18.90
2019-05-20T01:20:14.891Z,18.90
2019-05-20T01:22:42.399Z,19.77
2019-05-20T01:25:09.938Z,20.20
2019-05-20T01:27:37.401Z,20.47
2019-05-20T01:30:05.208Z,20.83
2019-05-20T01:32:32.777Z,21.30
2019-05-20T01:35:00.309Z,20.83
2019-05-20T01:37:27.808Z,21.40
2019-05-20T01:39:55.234Z,20.13
2019-05-20T01:42:22.785Z,21.47
2019-05-20T01:44:50.337Z,20.37
2019-05-20T01:47:18.723Z,20.57
2019-05-20T01:49:46.273Z,20.17
2019-05-20T01:52:13.731Z,20.97
2019-05-20T01:54:41.165Z,19.73
2019-05-20T01:57:08.791Z,19.80
2019-05-20T01:59:36.330Z,19.33
2019-05-20T02:02:03.855Z,21.13
2019-05-20T02:04:31.288Z,19.50
2019-05-20T02:06:58.831Z,19.47
2019-05-20T02:09:26.386Z,20.23
2019-05-20T02:11:53.986Z,20.07
2019-05-20T02:14:23.744Z,19.90
2019-05-20T02:16:51.473Z,21.13
2019-05-20T02:19:19.043Z,19.90
2019-05-20T02:21:46.848Z,20.27
2019-05-20T02:24:14.390Z,20.93
2019-05-20T02:26:41.915Z,20.40
2019-05-20T02:29:09.465Z,20.90
2019-05-20T02:31:37.022Z,20.67
2019-05-20T02:34:04.443Z,20.33
2019-05-20T02:36:32.017Z,19.80
2019-05-20T02:38:59.541Z,19.67
2019-05-20T02:41:28.164Z,19.90
2019-05-20T02:43:55.731Z,19.63
2019-05-20T02:46:23.259Z,18.80
2019-05-20T02:48:50.667Z,19.30
2019-05-20T02:51:30.530Z,18.93
2019-05-20T02:53:59.243Z,20.43
2019-05-20T02:56:26.795Z,20.10
2019-05-20T02:58:54.304Z,20.37
2019-05-20T03:01:22.204Z,21.13
2019-05-20T03:04:08.028Z,20.33
2019-05-20T03:06:19.127Z,19.77
2019-05-20T03:08:46.663Z,19.10
2019-05-20T03:11:14.201Z,20.47
2019-05-20T03:13:41.674Z,18.80
2019-05-20T03:16:09.263Z,20.17
2019-05-20T03:18:36.847Z,19.60
2019-05-20T03:21:04.423Z,19.40
2019-05-20T03:23:31.961Z,20.20
2019-05-20T03:25:59.499Z,20.00
2019-05-20T03:28:27.172Z,19.37
2019-05-20T03:30:54.677Z,20.30
2019-05-20T03:33:22.273Z,20.50
2019-05-20T03:35:52.798Z,20.60
2019-05-20T03:38:20.301Z,19.03
2019-05-20T03:40:47.817Z,19.60
2019-05-20T03:43:15.347Z,19.80
2019-05-20T03:45:42.957Z,20.20
2019-05-20T03:48:10.571Z,19.33
2019-05-20T03:50:46.138Z,19.93
2019-05-20T03:53:13.673Z,20.80
2019-05-20T03:55:41.197Z,20.10
2019-05-20T03:58:13.000Z,21.80
2019-05-20T04:00:43.143Z,19.00
2019-05-20T04:03:10.766Z,19.83
2019-05-20T04:05:38.422Z,20.03
2019-05-20T04:08:05.929Z,22.37
2019-05-20T04:10:33.482Z,21.30
2019-05-20T04:13:01.051Z,20.27
2019-05-20T04:15:28.587Z,20.73
2019-05-20T04:17:56.118Z,20.97
2019-05-20T04:20:23.755Z,20.50
2019-05-20T04:22:51.292Z,23.60
2019-05-20T04:25:18.906Z,22.67
2019-05-20T04:27:46.468Z,23.43
2019-05-20T04:30:18.543Z,23.13
2019-05-20T04:32:43.678Z,24.73
2019-05-20T04:35:22.126Z,24.80
2019-05-20T04:37:40.680Z,25.30
2019-05-20T04:40:08.213Z,25.60
2019-05-20T04:42:35.708Z,24.70
2019-05-20T04:45:04.384Z,25.23
2019-05-20T04:47:32.312Z,25.03
2019-05-20T04:49:59.895Z,26.47
2019-05-20T04:52:27.447Z,24.07
2019-05-20T04:54:55.017Z,24.70
2019-05-20T04:57:22.615Z,25.17
2019-05-20T04:59:50.128Z,24.33
2019-05-20T05:02:17.672Z,23.73
2019-05-20T05:04:45.319Z,23.83
2019-05-20T05:07:13.199Z,23.97
2019-05-20T05:09:40.828Z,25.10
2019-05-20T05:12:08.372Z,25.00
2019-05-20T05:14:35.901Z,24.83
2019-05-20T05:17:03.510Z,23.37
2019-05-20T05:19:31.051Z,24.47
2019-05-20T05:21:59.607Z,23.60
2019-05-20T05:24:27.286Z,23.87
2019-05-20T05:26:55.871Z,23.07
2019-05-20T05:29:23.691Z,23.60
2019-05-20T05:31:51.265Z,23.27
2019-05-20T05:34:18.905Z,23.20
2019-05-20T05:36:46.708Z,22.30
2019-05-20T05:39:14.245Z,21.03
2019-05-20T05:41:41.819Z,21.00
2019-05-20T05:44:09.456Z,21.37
2019-05-20T05:46:37.000Z,20.97
2019-05-20T05:49:04.779Z,21.43
2019-05-20T05:51:32.375Z,21.93
2019-05-20T05:54:02.887Z,22.10
2019-05-20T05:56:30.457Z,21.03
2019-05-20T05:58:58.060Z,22.30
2019-05-20T06:01:25.622Z,21.93
2019-05-20T06:03:53.164Z,22.50
2019-05-20T06:06:20.682Z,23.30
2019-05-20T06:08:48.137Z,23.83
2019-05-20T06:11:15.657Z,22.80
2019-05-20T06:13:43.261Z,20.97
2019-05-20T06:16:10.879Z,23.13
2019-05-20T06:18:38.411Z,20.43
2019-05-20T06:21:05.965Z,20.17
2019-05-20T06:23:33.463Z,21.60
2019-05-20T06:26:01.020Z,20.83
2019-05-20T06:28:28.529Z,21.93
2019-05-20T06:30:56.233Z,20.93
2019-05-20T06:33:23.748Z,21.03
2019-05-20T06:35:51.177Z,22.40
2019-05-20T06:38:42.334Z,20.80
2019-05-20T06:41:09.973Z,18.53
2019-05-20T06:43:37.518Z,19.40
2019-05-20T06:46:05.180Z,19.80
2019-05-20T06:48:32.712Z,20.40
2019-05-20T06:51:00.337Z,21.27
2019-05-20T06:53:27.918Z,21.90
2019-05-20T06:55:55.444Z,21.27
2019-05-20T06:58:22.965Z,21.93
2019-05-20T07:00:50.498Z,20.97
2019-05-20T07:03:18.042Z,22.00
2019-05-20T07:05:45.698Z,20.53
2019-05-20T07:08:13.575Z,21.83
2019-05-20T07:10:41.093Z,20.83
2019-05-20T07:13:08.623Z,20.60
2019-05-20T07:15:36.156Z,21.20
2019-05-20T07:18:04.022Z,20.97
2019-05-20T07:20:31.664Z,20.00
2019-05-20T07:22:59.216Z,22.20
2019-05-20T07:25:26.788Z,20.83
2019-05-20T07:27:54.305Z,21.27
2019-05-20T07:30:22.141Z,20.17
2019-05-20T07:32:50.867Z,21.53
2019-05-20T07:35:29.436Z,23.47
2019-05-20T07:37:47.897Z,22.87
2019-05-20T07:40:20.116Z,22.73
2019-05-20T07:42:47.621Z,22.83
2019-05-20T07:45:15.055Z,24.23
2019-05-20T07:47:42.725Z,24.10
2019-05-20T07:50:11.285Z,23.20
2019-05-20T07:52:38.834Z,23.13
2019-05-20T07:55:07.588Z,20.83
2019-05-20T07:57:38.879Z,22.23
2019-05-20T08:00:06.828Z,22.23
2019-05-20T08:02:34.373Z,21.53
2019-05-20T08:05:04.379Z,21.13
2019-05-20T08:07:50.373Z,22.00
2019-05-20T08:10:02.429Z,21.03
2019-05-20T08:12:31.222Z,20.17
2019-05-20T08:14:58.802Z,19.87
2019-05-20T08:17:26.370Z,19.67
2019-05-20T08:19:53.887Z,20.47
2019-05-20T08:22:21.441Z,19.97
2019-05-20T08:24:48.969Z,20.97
2019-05-20T08:27:16.536Z,19.27
2019-05-20T08:29:44.066Z,19.17
2019-05-20T08:32:11.503Z,20.40
2019-05-20T08:34:39.876Z,21.30
2019-05-20T08:37:08.046Z,20.33
2019-05-20T08:39:35.487Z,20.73
2019-05-20T08:42:02.962Z,20.17
2019-05-20T08:44:30.661Z,19.07
2019-05-20T08:46:58.191Z,19.73
2019-05-20T08:49:25.976Z,21.00
2019-05-20T08:51:53.538Z,21.23
2019-05-20T08:54:20.951Z,22.20
2019-05-20T08:56:49.786Z,22.17
2019-05-20T08:59:17.326Z,22.23
2019-05-20T09:01:44.888Z,22.60
2019-05-20T09:04:13.742Z,21.33
2019-05-20T09:06:41.187Z,18.00
2019-05-20T09:09:11.986Z,15.43
2019-05-20T09:11:38.087Z,14.40
2019-05-20T09:14:05.618Z,14.60
2019-05-20T09:16:33.166Z,13.63
2019-05-20T09:19:00.738Z,14.13
2019-05-20T09:21:28.294Z,14.90
2019-05-20T09:23:55.811Z,13.57
2019-05-20T09:26:23.411Z,16.10
2019-05-20T09:28:50.974Z,18.20
2019-05-20T09:31:18.580Z,19.77
2019-05-20T09:33:46.345Z,16.00
2019-05-20T09:36:13.975Z,14.47
2019-05-20T09:38:41.564Z,12.90
2019-05-20T09:41:09.094Z,11.73
2019-05-20T09:43:36.555Z,11.03
2019-05-20T09:46:08.076Z,13.87
2019-05-20T09:48:33.373Z,12.53
2019-05-20T09:51:00.891Z,12.00
2019-05-20T09:53:28.405Z,11.77
2019-05-20T09:55:55.936Z,11.50
2019-05-20T09:58:23.384Z,11.20
2019-05-20T10:00:50.956Z,11.43
2019-05-20T10:03:21.569Z,10.97
2019-05-20T10:05:49.100Z,10.50
2019-05-20T10:08:16.799Z,10.50
2019-05-20T10:10:44.378Z,10.33
2019-05-20T10:13:11.938Z,9.43
2019-05-20T10:15:39.534Z,9.00
2019-05-20T10:18:07.228Z,8.97
2019-05-20T10:20:34.749Z,8.40
2019-05-20T10:23:02.327Z,8.03
2019-05-20T10:25:29.822Z,8.40
2019-05-20T10:27:57.894Z,9.10
2019-05-20T10:30:25.537Z,10.07
2019-05-20T10:32:53.067Z,11.00
2019-05-20T10:35:20.603Z,9.10
2019-05-20T10:37:48.104Z,10.30
2019-05-20T10:40:15.828Z,9.43
2019-05-20T10:42:44.064Z,9.60
2019-05-20T10:45:11.892Z,9.23
2019-05-20T10:47:39.430Z,8.73
2019-05-20T10:50:07.273Z,8.83
2019-05-20T10:52:34.845Z,11.80
2019-05-20T10:55:02.595Z,10.37
2019-05-20T10:57:30.039Z,10.63
2019-05-20T10:59:57.584Z,10.17
2019-05-20T11:02:25.099Z,10.53
2019-05-20T11:04:52.733Z,9.83
2019-05-20T11:07:20.261Z,11.40
2019-05-20T11:09:47.818Z,11.60
2019-05-20T11:12:15.344Z,12.03
2019-05-20T11:14:42.930Z,16.00
2019-05-20T11:17:14.315Z,16.00
2019-05-20T11:19:39.850Z,16.53
2019-05-20T11:22:07.301Z,16.60
2019-05-20T11:24:35.076Z,17.50
2019-05-20T11:27:02.630Z,18.80
2019-05-20T11:29:30.220Z,17.63
2019-05-20T11:31:57.764Z,17.87
2019-05-20T11:34:25.269Z,18.13
2019-05-20T11:36:54.015Z,16.83
2019-05-20T11:39:32.673Z,15.83
2019-05-20T11:41:54.255Z,16.27
2019-05-20T11:44:20.324Z,15.20
2019-05-20T11:46:47.851Z,15.00
2019-05-20T11:49:15.369Z,16.40
2019-05-20T11:51:42.944Z,15.00
2019-05-20T11:54:10.491Z,14.60
2019-05-20T11:56:38.103Z,13.10
2019-05-20T11:59:05.617Z,13.80
2019-05-20T12:01:33.192Z,14.43
2019-05-20T12:04:00.747Z,14.30
2019-05-20T12:06:28.324Z,13.70
2019-05-20T12:08:55.875Z,13.60
2019-05-20T12:11:23.410Z,13.87
2019-05-20T12:13:51.055Z,14.70
2019-05-20T12:16:18.564Z,15.30
2019-05-20T12:18:46.098Z,14.87
2019-05-20T12:21:13.677Z,13.87
2019-05-20T12:23:41.225Z,14.30
2019-05-20T12:26:08.773Z,13.43
2019-05-20T12:28:36.371Z,12.47
2019-05-20T12:31:03.835Z,12.07
2019-05-20T12:33:31.370Z,10.80
2019-05-20T12:35:58.851Z,11.30
2019-05-20T12:38:26.377Z,10.87
2019-05-20T12:40:53.900Z,11.47
2019-05-20T12:43:21.486Z,10.63
2019-05-20T12:45:48.982Z,14.60
2019-05-20T12:48:16.549Z,10.77
2019-05-20T12:50:44.059Z,8.87
2019-05-20T12:53:11.619Z,8.80
2019-05-20T12:55:39.193Z,9.23
2019-05-20T12:58:06.821Z,9.63
2019-05-20T13:00:34.675Z,8.87
2019-05-20T13:03:02.160Z,9.30
2019-05-20T13:05:29.764Z,11.43
2019-05-20T13:07:58.447Z,10.57
2019-05-20T13:10:30.358Z,10.57
2019-05-20T13:12:55.445Z,11.70
2019-05-20T13:15:24.667Z,11.93
2019-05-20T13:17:52.274Z,14.33
2019-05-20T13:20:20.241Z,13.10
2019-05-20T13:22:47.758Z,13.63
2019-05-20T13:25:15.531Z,13.03
2019-05-20T13:27:43.056Z,13.40
2019-05-20T13:30:23.095Z,12.97
2019-05-20T13:32:50.643Z,12.77
2019-05-20T13:35:18.291Z,13.17
2019-05-20T13:37:45.891Z,10.43
2019-05-20T13:40:14.014Z,10.80
2019-05-20T13:42:41.544Z,9.53
2019-05-20T13:45:09.332Z,9.67
2019-05-20T13:47:36.915Z,10.53
2019-05-20T13:50:05.050Z,10.63
2019-05-20T13:52:32.568Z,11.17
2019-05-20T13:55:00.150Z,11.90
2019-05-20T13:57:28.119Z,11.80
2019-05-20T13:59:55.758Z,13.23
2019-05-20T14:02:23.200Z,14.07
2019-05-20T14:04:50.732Z,13.30
2019-05-20T14:07:18.284Z,13.67
2019-05-20T14:09:45.845Z,13.87
2019-05-20T14:12:13.365Z,14.20
2019-05-20T14:14:40.809Z,13.90
2019-05-20T14:17:08.438Z,13.00
2019-05-20T14:19:36.049Z,13.77
2019-05-20T14:22:03.863Z,14.37
2019-05-20T14:24:31.427Z,14.30
2019-05-20T14:26:59.993Z,14.53
2019-05-20T14:29:27.589Z,14.40
2019-05-20T14:31:55.278Z,14.17
2019-05-20T14:34:23.408Z,14.30
2019-05-20T14:36:52.945Z,14.93
2019-05-20T14:39:20.647Z,14.53
2019-05-20T14:41:48.237Z,15.07
2019-05-20T14:44:15.767Z,15.70
2019-05-20T14:46:43.324Z,14.87
2019-05-20T14:49:11.103Z,15.90
2019-05-20T14:51:38.627Z,15.43
2019-05-20T14:54:06.547Z,14.80
2019-05-20T14:56:34.138Z,14.23
2019-05-20T14:59:01.995Z,14.57
2019-05-20T15:01:29.536Z,16.03
2019-05-20T15:03:57.579Z,17.57
2019-05-20T15:06:25.106Z,17.93
2019-05-20T15:08:52.656Z,18.77
2019-05-20T15:11:20.204Z,19.60
2019-05-20T15:13:49.969Z,19.50
2019-05-20T15:16:17.567Z,18.33
2019-05-20T15:18:45.118Z,19.63
2019-05-20T15:21:12.684Z,22.07
2019-05-20T15:23:40.226Z,22.40
2019-05-20T15:26:10.779Z,22.40
2019-05-20T15:28:38.356Z,22.97
2019-05-20T15:31:05.938Z,23.10
2019-05-20T15:33:33.465Z,24.03
2019-05-20T15:36:01.094Z,23.80
2019-05-20T15:38:28.916Z,25.83
2019-05-20T15:40:56.511Z,26.43
2019-05-20T15:43:24.020Z,25.93
2019-05-20T15:45:52.604Z,23.87
2019-05-20T15:48:20.142Z,22.00
2019-05-20T15:50:47.823Z,21.80
2019-05-20T15:53:15.384Z,20.53
2019-05-20T15:55:43.015Z,18.40
2019-05-20T15:58:10.579Z,19.13
2019-05-20T16:00:38.096Z,18.40
2019-05-20T16:03:05.672Z,19.80
2019-05-20T16:05:33.239Z,19.40
2019-05-20T16:08:02.490Z,18.97
2019-05-20T16:10:30.308Z,18.07
2019-05-20T16:12:57.878Z,17.77
2019-05-20T16:15:25.488Z,17.33
2019-05-20T16:17:53.028Z,17.13
2019-05-20T16:20:20.936Z,17.07
2019-05-20T16:22:48.524Z,15.63
2019-05-20T16:25:16.141Z,15.70
2019-05-20T16:27:43.779Z,15.57
2019-05-20T16:30:12.018Z,15.97
2019-05-20T16:32:39.586Z,16.57
2019-05-20T16:35:07.683Z,17.27
2019-05-20T16:37:35.138Z,16.50
2019-05-20T16:40:03.294Z,17.20
2019-05-20T16:42:30.874Z,17.00
2019-05-20T16:44:58.448Z,16.30
2019-05-20T16:47:26.961Z,15.20
2019-05-20T16:49:54.502Z,15.23
2019-05-20T16:52:22.045Z,15.80
2019-05-20T16:54:49.620Z,15.63
2019-05-20T16:57:17.280Z,15.80
2019-05-20T16:59:46.080Z,15.83
2019-05-20T17:02:13.627Z,16.63
2019-05-20T17:04:41.164Z,16.03
2019-05-20T17:07:09.847Z,16.00
2019-05-20T17:09:37.378Z,16.53
2019-05-20T17:12:05.026Z,17.20
2019-05-20T17:14:32.595Z,17.40
2019-05-20T17:17:02.190Z,18.23
2019-05-20T17:19:29.741Z,19.13
2019-05-20T17:21:57.427Z,20.43
2019-05-20T17:24:29.887Z,16.87
2019-05-20T17:26:57.212Z,16.13
2019-05-20T17:29:24.897Z,15.77
2019-05-20T17:31:52.491Z,15.40
2019-05-20T17:34:20.064Z,15.43
2019-05-20T17:36:47.646Z,16.33
2019-05-20T17:39:15.549Z,16.73
2019-05-20T17:41:44.815Z,18.47
2019-05-20T17:44:12.459Z,18.57
2019-05-20T17:46:40.203Z,19.97
2019-05-20T17:49:08.058Z,19.87
2019-05-20T17:51:43.245Z,19.63
2019-05-20T17:54:10.889Z,18.70
2019-05-20T17:56:38.617Z,18.13
2019-05-20T17:59:06.193Z,18.80
2019-05-20T18:01:33.752Z,18.57
2019-05-20T18:04:01.332Z,18.97
2019-05-20T18:06:29.220Z,18.77
2019-05-20T18:09:01.004Z,20.37
2019-05-20T18:11:28.543Z,20.83
2019-05-20T18:13:56.111Z,20.27
2019-05-20T18:16:23.681Z,21.47
2019-05-20T18:18:51.261Z,20.83
2019-05-20T18:21:18.818Z,19.47
2019-05-20T18:23:46.380Z,17.97
2019-05-20T18:26:14.008Z,17.57
2019-05-20T18:28:41.633Z,18.40
2019-05-20T18:31:09.304Z,17.20
2019-05-20T18:33:36.822Z,15.73
2019-05-20T18:36:04.387Z,15.37
2019-05-20T18:38:31.987Z,14.47
2019-05-20T18:41:01.836Z,14.73
2019-05-20T18:43:29.411Z,14.77
2019-05-20T18:45:56.958Z,14.27
2019-05-20T18:48:24.588Z,14.67
2019-05-20T18:50:52.179Z,14.27
2019-05-20T18:53:21.273Z,14.23
2019-05-20T18:55:48.907Z,15.50
2019-05-20T18:58:16.469Z,15.77
2019-05-20T19:00:44.062Z,16.53
2019-05-20T19:03:11.638Z,15.83
2019-05-20T19:05:39.211Z,16.37
2019-05-20T19:08:06.881Z,16.30
2019-05-20T19:10:34.457Z,17.20
2019-05-20T19:13:02.005Z,16.97
2019-05-20T19:15:29.543Z,17.30
2019-05-20T19:17:57.155Z,17.00
2019-05-20T19:20:24.812Z,18.07
2019-05-20T19:22:52.719Z,17.93
2019-05-20T19:25:20.327Z,17.20
2019-05-20T19:27:48.923Z,18.20
2019-05-20T19:30:16.870Z,18.13
2019-05-20T19:32:44.439Z,19.07
2019-05-20T19:35:12.034Z,19.73
2019-05-20T19:37:39.609Z,18.43
2019-05-20T19:40:08.217Z,19.50
2019-05-20T19:42:38.967Z,18.57
2019-05-20T19:45:06.777Z,19.53
2019-05-20T19:47:35.367Z,18.90
2019-05-20T19:50:05.396Z,19.80
2019-05-20T19:52:33.023Z,24.10
2019-05-20T19:55:00.628Z,24.43
2019-05-20T19:57:28.338Z,24.60
2019-05-20T19:59:56.327Z,25.93
2019-05-20T20:02:23.869Z,27.17
2019-05-20T20:04:51.602Z,27.00
2019-05-20T20:07:19.338Z,26.63
2019-05-20T20:09:46.973Z,28.17
2019-05-20T20:12:14.641Z,28.30
2019-05-20T20:14:42.263Z,29.13
2019-05-20T20:17:10.971Z,29.63
2019-05-20T20:19:38.635Z,30.97
2019-05-20T20:22:06.398Z,32.03
2019-05-20T20:24:33.986Z,32.40
2019-05-20T20:27:01.631Z,32.10
2019-05-20T20:29:29.285Z,32.73
2019-05-20T20:31:56.866Z,33.57
2019-05-20T20:34:24.434Z,34.23
2019-05-20T20:36:52.074Z,32.30
2019-05-20T20:39:19.623Z,33.00
2019-05-20T20:41:47.215Z,32.77
2019-05-20T20:44:14.766Z,32.33
2019-05-20T20:46:42.309Z,32.60
2019-05-20T20:49:09.855Z,33.30
2019-05-20T20:51:37.437Z,32.53
2019-05-20T20:54:07.459Z,31.43
2019-05-20T20:56:35.055Z,32.43
2019-05-20T20:59:02.620Z,31.30
2019-05-20T21:01:30.232Z,29.63
2019-05-20T21:03:57.779Z,31.40
2019-05-20T21:06:25.344Z,32.53
2019-05-20T21:08:52.863Z,29.90
2019-05-20T21:11:20.313Z,28.83
2019-05-20T21:13:47.795Z,29.73
2019-05-20T21:16:15.372Z,30.03
2019-05-20T21:18:42.973Z,27.87
2019-05-20T21:21:10.572Z,26.67
2019-05-20T21:23:38.211Z,27.23
2019-05-20T21:26:06.334Z,27.10
2019-05-20T21:28:33.867Z,25.27
2019-05-20T21:31:01.419Z,24.10
2019-05-20T21:33:28.921Z,24.73
2019-05-20T21:36:01.129Z,25.63
2019-05-20T21:38:28.663Z,24.43
2019-05-20T21:40:56.220Z,22.83
2019-05-20T21:43:23.870Z,24.47
2019-05-20T21:45:51.741Z,24.13
2019-05-20T21:48:19.387Z,29.93
2019-05-20T21:50:47.005Z,26.10
2019-05-20T21:53:14.735Z,24.97
2019-05-20T21:55:42.335Z,25.17
2019-05-20T21:58:09.997Z,26.00
2019-05-20T22:00:45.405Z,24.97
2019-05-20T22:03:24.130Z,24.27
2019-05-20T22:05:42.299Z,24.13
2019-05-20T22:08:09.836Z,25.10
2019-05-20T22:10:37.395Z,25.20
2019-05-20T22:13:04.849Z,24.40
2019-05-20T22:15:32.389Z,24.53
2019-05-20T22:17:59.972Z,24.30
2019-05-20T22:20:28.593Z,24.87
2019-05-20T22:23:14.199Z,25.33
2019-05-20T22:25:41.770Z,24.50
2019-05-20T22:28:12.738Z,24.33
2019-05-20T22:30:38.711Z,25.17
2019-05-20T22:33:06.299Z,25.80
2019-05-20T22:35:33.802Z,25.20
2019-05-20T22:38:01.337Z,26.77
2019-05-20T22:40:28.868Z,27.27
2019-05-20T22:42:56.447Z,26.43
2019-05-20T22:45:24.099Z,27.40
2019-05-20T22:47:51.661Z,28.37
2019-05-20T22:50:19.200Z,29.23
2019-05-20T22:52:46.731Z,27.53
2019-05-20T22:55:14.262Z,24.10
2019-05-20T22:57:41.807Z,25.67
2019-05-20T23:00:09.361Z,24.23
2019-05-20T23:02:36.895Z,23.87
2019-05-20T23:05:04.563Z,25.90
2019-05-20T23:07:32.150Z,25.40
2019-05-20T23:09:59.699Z,26.60
2019-05-20T23:12:27.263Z,26.67
2019-05-20T23:14:54.803Z,26.37
2019-05-20T23:17:22.303Z,27.10
2019-05-20T23:19:49.824Z,25.67
2019-05-20T23:22:17.311Z,27.40
2019-05-20T23:24:44.847Z,26.77
2019-05-20T23:27:12.356Z,26.13
2019-05-20T23:29:39.869Z,25.77
2019-05-20T23:32:07.457Z,26.17
2019-05-20T23:34:34.987Z,24.97
2019-05-20T23:37:02.656Z,25.73
2019-05-20T23:39:30.095Z,26.60
2019-05-20T23:41:57.659Z,23.93
2019-05-20T23:44:25.233Z,27.43
2019-05-20T23:46:52.748Z,26.23
2019-05-20T23:49:20.309Z,26.17
2019-05-20T23:51:47.858Z,27.00
2019-05-20T23:54:15.424Z,25.53
2019-05-20T23:56:42.922Z,24.63
2019-05-20T23:59:10.361Z,26.13
